^^
Saratoga-Weather Station Historical Data
Daily Summary for November 1, 2020 Units:  Both    English   Metric
Daily Weekly Monthly Yearly Custom
  High: Low: Average:
Temperature: 63.7 °F /  17.6 °C 57.7 °F /  14.3 °C 60.1 °F /  15.6 °C
Dew Point: 59.7 °F /  15.4 °C 53.8 °F /  12.1 °C 57 °F /  13.9 °C
Humidity: 95% 78% 89%
Wind Speed: 10.1mph /  16.3km/h - 2.2mph /  3.5km/h
Wind Gust: 20mph /  32.2km/h - -
Wind- - SSW
Pressure: 30 in /  1016.6 hPa 29.9 in /  1012.5 hPa -
Precipitation: 0.13 in /  3.3 mm    
Historical Graphs
 
 
Tabular Data for November 1, 2020
Time Temperature Dew Point Pressure Wind Wind Speed Wind Gust Humidity Rainfall Rate (Hourly) solar
00:02 60.1 °F /  15.6 °C 54 °F /  12.2 °C 30in /  1016.6hPa SSW 2.9mph /  4.7km/h 4mph /  6.4km/h 80% 0in /  0.0mm 0 W/m2
00:07 60.1 °F /  15.6 °C 54 °F /  12.2 °C 30in /  1016.6hPa East 0.9mph /  1.4km/h 3mph /  4.8km/h 80% 0in /  0.0mm 0 W/m2
00:12 60.1 °F /  15.6 °C 54 °F /  12.2 °C 30in /  1016.6hPa WNW 0.9mph /  1.4km/h 7mph /  11.3km/h 80% 0in /  0.0mm 0 W/m2
00:17 60.3 °F /  15.7 °C 54.1 °F /  12.3 °C 30in /  1016.6hPa ESE 0.9mph /  1.4km/h 2mph /  3.2km/h 80% 0in /  0.0mm 0 W/m2
00:22 60.3 °F /  15.7 °C 53.8 °F /  12.1 °C 30in /  1016.3hPa NW 4.9mph /  7.9km/h 5mph /  8km/h 79% 0in /  0.0mm 0 W/m2
00:27 60.6 °F /  15.9 °C 53.8 °F /  12.1 °C 30in /  1016.3hPa NW 0.9mph /  1.4km/h 3mph /  4.8km/h 78% 0in /  0.0mm 0 W/m2
00:32 60.6 °F /  15.9 °C 53.8 °F /  12.1 °C 30in /  1016.3hPa NW 0.9mph /  1.4km/h 2mph /  3.2km/h 78% 0in /  0.0mm 0 W/m2
00:37 60.6 °F /  15.9 °C 53.8 °F /  12.1 °C 30in /  1016.3hPa Calm   1mph /  1.6km/h 78% 0in /  0.0mm 0 W/m2
00:42 60.6 °F /  15.9 °C 53.8 °F /  12.1 °C 30in /  1016.3hPa North 2mph /  3.2km/h 8mph /  12.9km/h 78% 0in /  0.0mm 0 W/m2
00:47 60.8 °F /  16 °C 54.3 °F /  12.4 °C 30in /  1016.3hPa Calm   6mph /  9.7km/h 79% 0in /  0.0mm 0 W/m2
00:52 60.8 °F /  16 °C 54.3 °F /  12.4 °C 30in /  1016.3hPa NW 0.9mph /  1.4km/h 10mph /  16.1km/h 79% 0in /  0.0mm 0 W/m2
00:57 60.6 °F /  15.9 °C 54.1 °F /  12.3 °C 30in /  1016.3hPa North 2.9mph /  4.7km/h 6mph /  9.7km/h 79% 0in /  0.0mm 0 W/m2
01:02 60.6 °F /  15.9 °C 54.5 °F /  12.5 °C 30in /  1016.3hPa South 0.9mph /  1.4km/h 7mph /  11.3km/h 80% 0in /  0.0mm 0 W/m2
01:07 60.6 °F /  15.9 °C 54.5 °F /  12.5 °C 30in /  1016.3hPa Calm   3mph /  4.8km/h 80% 0in /  0.0mm 0 W/m2
01:12 60.6 °F /  15.9 °C 54.5 °F /  12.5 °C 30in /  1016.3hPa NW 2mph /  3.2km/h 4mph /  6.4km/h 80% 0in /  0.0mm 0 W/m2
01:17 60.4 °F /  15.8 °C 54.3 °F /  12.4 °C 30in /  1016.3hPa Calm   4mph /  6.4km/h 80% 0in /  0.0mm 0 W/m2
01:22 60.4 °F /  15.8 °C 54.3 °F /  12.4 °C 30in /  1016.3hPa NW 2mph /  3.2km/h 2mph /  3.2km/h 80% 0in /  0.0mm 0 W/m2
01:27 60.4 °F /  15.8 °C 54.3 °F /  12.4 °C 30in /  1016.6hPa SSE 2.9mph /  4.7km/h 4mph /  6.4km/h 80% 0in /  0.0mm 0 W/m2
01:32 60.4 °F /  15.8 °C 54.3 °F /  12.4 °C 30in /  1016.3hPa Calm   3mph /  4.8km/h 80% 0in /  0.0mm 0 W/m2
01:37 60.4 °F /  15.8 °C 54.5 °F /  12.5 °C 30in /  1016.3hPa NNE 0.9mph /  1.4km/h 3mph /  4.8km/h 81% 0in /  0.0mm 0 W/m2
01:42 60.3 °F /  15.7 °C 54.3 °F /  12.4 °C 30in /  1016.3hPa NNW 0.9mph /  1.4km/h 4mph /  6.4km/h 81% 0in /  0.0mm 0 W/m2
01:47 60.3 °F /  15.7 °C 54.7 °F /  12.6 °C 30in /  1016.3hPa NNW 4.9mph /  7.9km/h 5mph /  8km/h 82% 0in /  0.0mm 0 W/m2
01:52 60.1 °F /  15.6 °C 54.5 °F /  12.5 °C 30in /  1016.3hPa WNW 2mph /  3.2km/h 3mph /  4.8km/h 82% 0in /  0.0mm 0 W/m2
01:57 59.7 °F /  15.4 °C 54.5 °F /  12.5 °C 30in /  1016.3hPa ENE 0.9mph /  1.4km/h 4mph /  6.4km/h 83% 0in /  0.0mm 0 W/m2
02:02 59.7 °F /  15.4 °C 54.5 °F /  12.5 °C 30in /  1016.3hPa Calm   2mph /  3.2km/h 83% 0in /  0.0mm 0 W/m2
02:07 59.5 °F /  15.3 °C 54.3 °F /  12.4 °C 30in /  1016.3hPa WNW 0.9mph /  1.4km/h 3mph /  4.8km/h 83% 0in /  0.0mm 0 W/m2
02:12 59.5 °F /  15.3 °C 54.7 °F /  12.6 °C 30in /  1016.3hPa East 2.9mph /  4.7km/h 3mph /  4.8km/h 84% 0in /  0.0mm 0 W/m2
02:17 59.4 °F /  15.2 °C 54.5 °F /  12.5 °C 30in /  1016.3hPa NNW 2mph /  3.2km/h 3mph /  4.8km/h 84% 0in /  0.0mm 0 W/m2
02:22 59.4 °F /  15.2 °C 54.5 °F /  12.5 °C 30in /  1016.3hPa NE 0.9mph /  1.4km/h 3mph /  4.8km/h 84% 0in /  0.0mm 0 W/m2
02:27 59.4 °F /  15.2 °C 54.5 °F /  12.5 °C 30in /  1016.3hPa WNW 0.9mph /  1.4km/h 2mph /  3.2km/h 84% 0in /  0.0mm 0 W/m2
02:32 59.4 °F /  15.2 °C 54.5 °F /  12.5 °C 30in /  1016.3hPa NNE 0.9mph /  1.4km/h 2mph /  3.2km/h 84% 0in /  0.0mm 0 W/m2
02:37 59.2 °F /  15.1 °C 54.7 °F /  12.6 °C 30in /  1016.3hPa Calm   6mph /  9.7km/h 85% 0in /  0.0mm 0 W/m2
02:42 59.4 °F /  15.2 °C 54.9 °F /  12.7 °C 30in /  1016.3hPa WNW 0.9mph /  1.4km/h 3mph /  4.8km/h 85% 0in /  0.0mm 0 W/m2
02:47 59.2 °F /  15.1 °C 54.7 °F /  12.6 °C 30in /  1016.3hPa Calm   1mph /  1.6km/h 85% 0in /  0.0mm 0 W/m2
02:52 59.2 °F /  15.1 °C 54.7 °F /  12.6 °C 30in /  1016.3hPa Calm   3mph /  4.8km/h 85% 0in /  0.0mm 0 W/m2
02:57 59.2 °F /  15.1 °C 54.7 °F /  12.6 °C 30in /  1016.3hPa Calm   1mph /  1.6km/h 85% 0in /  0.0mm 0 W/m2
03:02 59.2 °F /  15.1 °C 54.7 °F /  12.6 °C 30in /  1016.3hPa Calm   3mph /  4.8km/h 85% 0in /  0.0mm 0 W/m2
03:07 59.2 °F /  15.1 °C 54.7 °F /  12.6 °C 30in /  1016.3hPa SE 0.9mph /  1.4km/h 1mph /  1.6km/h 85% 0in /  0.0mm 0 W/m2
03:12 59 °F /  15 °C 54.5 °F /  12.5 °C 30in /  1016.3hPa ENE 2mph /  3.2km/h 4mph /  6.4km/h 85% 0in /  0.0mm 0 W/m2
03:17 59 °F /  15 °C 54.9 °F /  12.7 °C 30in /  1016.3hPa Calm   2mph /  3.2km/h 86% 0in /  0.0mm 0 W/m2
03:22 59 °F /  15 °C 54.9 °F /  12.7 °C 30in /  1016.3hPa Calm   2mph /  3.2km/h 86% 0in /  0.0mm 0 W/m2
03:27 59 °F /  15 °C 54.9 °F /  12.7 °C 30in /  1015.9hPa WNW 0.9mph /  1.4km/h 2mph /  3.2km/h 86% 0in /  0.0mm 0 W/m2
03:32 59.2 °F /  15.1 °C 55.4 °F /  13 °C 30in /  1015.9hPa NW 0.9mph /  1.4km/h 3mph /  4.8km/h 87% 0in /  0.0mm 0 W/m2
03:37 59.2 °F /  15.1 °C 55.4 °F /  13 °C 30in /  1015.9hPa East 2.9mph /  4.7km/h 8mph /  12.9km/h 87% 0in /  0.0mm 0 W/m2
03:42 59.2 °F /  15.1 °C 55.4 °F /  13 °C 30in /  1015.9hPa NW 2.9mph /  4.7km/h 5mph /  8km/h 87% 0in /  0.0mm 0 W/m2
03:47 59.2 °F /  15.1 °C 55.4 °F /  13 °C 30in /  1015.9hPa ESE 4mph /  6.4km/h 8mph /  12.9km/h 87% 0in /  0.0mm 0 W/m2
03:52 59.2 °F /  15.1 °C 55.4 °F /  13 °C 30in /  1015.9hPa NNW 0.9mph /  1.4km/h 1mph /  1.6km/h 87% 0in /  0.0mm 0 W/m2
03:57 59.2 °F /  15.1 °C 55.4 °F /  13 °C 30in /  1015.9hPa NNE 2mph /  3.2km/h 6mph /  9.7km/h 87% 0in /  0.0mm 0 W/m2
04:02 59.2 °F /  15.1 °C 55.4 °F /  13 °C 30in /  1015.6hPa NNE 2mph /  3.2km/h 3mph /  4.8km/h 87% 0in /  0.0mm 0 W/m2
04:07 59.2 °F /  15.1 °C 55.4 °F /  13 °C 30in /  1015.6hPa NW 2.9mph /  4.7km/h 8mph /  12.9km/h 87% 0in /  0.0mm 0 W/m2
04:12 59.2 °F /  15.1 °C 55.4 °F /  13 °C 30in /  1015.6hPa WNW 2.9mph /  4.7km/h 3mph /  4.8km/h 87% 0in /  0.0mm 0 W/m2
04:17 59.2 °F /  15.1 °C 55.4 °F /  13 °C 30in /  1015.6hPa West 4mph /  6.4km/h 6mph /  9.7km/h 87% 0in /  0.0mm 0 W/m2
04:22 59.2 °F /  15.1 °C 55.6 °F /  13.1 °C 30in /  1015.9hPa West 2mph /  3.2km/h 7mph /  11.3km/h 88% 0in /  0.0mm 0 W/m2
04:27 59.2 °F /  15.1 °C 55.6 °F /  13.1 °C 30in /  1015.9hPa ESE 6mph /  9.7km/h 6mph /  9.7km/h 88% 0in /  0.0mm 0 W/m2
04:32 59.2 °F /  15.1 °C 55.6 °F /  13.1 °C 30in /  1015.6hPa NNW 2mph /  3.2km/h 6mph /  9.7km/h 88% 0in /  0.0mm 0 W/m2
04:37 59 °F /  15 °C 55.4 °F /  13 °C 30in /  1015.2hPa East 0.9mph /  1.4km/h 8mph /  12.9km/h 88% 0in /  0.0mm 0 W/m2
04:42 59 °F /  15 °C 55.4 °F /  13 °C 30in /  1015.6hPa Calm   3mph /  4.8km/h 88% 0in /  0.0mm 0 W/m2
04:47 58.8 °F /  14.9 °C 55.6 °F /  13.1 °C 30in /  1015.6hPa ENE 2.9mph /  4.7km/h 6mph /  9.7km/h 89% 0in /  0.0mm 0 W/m2
04:52 58.8 °F /  14.9 °C 55.6 °F /  13.1 °C 30in /  1015.9hPa NW 0.9mph /  1.4km/h 7mph /  11.3km/h 89% 0in /  0.0mm 0 W/m2
04:57 58.6 °F /  14.8 °C 55.4 °F /  13 °C 30in /  1015.6hPa Calm   4mph /  6.4km/h 89% 0in /  0.0mm 0 W/m2
05:02 58.6 °F /  14.8 °C 55.4 °F /  13 °C 30in /  1015.6hPa SE 2mph /  3.2km/h 7mph /  11.3km/h 89% 0in /  0.0mm 0 W/m2
05:07 58.6 °F /  14.8 °C 55.8 °F /  13.2 °C 30in /  1015.6hPa North 0.9mph /  1.4km/h 3mph /  4.8km/h 90% 0in /  0.0mm 0 W/m2
05:12 58.5 °F /  14.7 °C 55.6 °F /  13.1 °C 30in /  1015.6hPa NNE 2mph /  3.2km/h 3mph /  4.8km/h 90% 0in /  0.0mm 0 W/m2
05:17 58.5 °F /  14.7 °C 55.6 °F /  13.1 °C 30in /  1015.2hPa NE 0.9mph /  1.4km/h 2mph /  3.2km/h 90% 0in /  0.0mm 0 W/m2
05:22 58.5 °F /  14.7 °C 55.6 °F /  13.1 °C 30in /  1015.6hPa NW 2.9mph /  4.7km/h 7mph /  11.3km/h 90% 0in /  0.0mm 0 W/m2
05:27 58.5 °F /  14.7 °C 55.8 °F /  13.2 °C 30in /  1015.6hPa NW 0.9mph /  1.4km/h 4mph /  6.4km/h 91% 0in /  0.0mm 0 W/m2
05:32 58.5 °F /  14.7 °C 55.8 °F /  13.2 °C 30in /  1015.6hPa NW 0.9mph /  1.4km/h 7mph /  11.3km/h 91% 0in /  0.0mm 0 W/m2
05:37 58.5 °F /  14.7 °C 55.8 °F /  13.2 °C 30in /  1015.2hPa West 2mph /  3.2km/h 6mph /  9.7km/h 91% 0in /  0.0mm 0 W/m2
05:42 58.5 °F /  14.7 °C 55.8 °F /  13.2 °C 30in /  1015.2hPa Calm   3mph /  4.8km/h 91% 0in /  0.0mm 0 W/m2
05:47 58.5 °F /  14.7 °C 55.8 °F /  13.2 °C 30in /  1015.2hPa NNW 0.9mph /  1.4km/h 6mph /  9.7km/h 91% 0in /  0.0mm 0 W/m2
05:52 58.5 °F /  14.7 °C 55.8 °F /  13.2 °C 30in /  1015.2hPa North 0.9mph /  1.4km/h 2mph /  3.2km/h 91% 0in /  0.0mm 0 W/m2
05:57 58.3 °F /  14.6 °C 55.9 °F /  13.3 °C 30in /  1015.2hPa WNW 2.9mph /  4.7km/h 3mph /  4.8km/h 92% 0in /  0.0mm 0 W/m2
06:02 58.3 °F /  14.6 °C 55.9 °F /  13.3 °C 30in /  1015.2hPa ENE 0.9mph /  1.4km/h 3mph /  4.8km/h 92% 0in /  0.0mm 0 W/m2
06:07 58.5 °F /  14.7 °C 56.1 °F /  13.4 °C 30in /  1015.2hPa NNE 2.9mph /  4.7km/h 5mph /  8km/h 92% 0in /  0.0mm 0 W/m2
06:12 58.5 °F /  14.7 °C 56.1 °F /  13.4 °C 30in /  1015.2hPa NE 4mph /  6.4km/h 5mph /  8km/h 92% 0in /  0.0mm 0 W/m2
06:17 58.5 °F /  14.7 °C 56.1 °F /  13.4 °C 30in /  1015.2hPa WSW 2mph /  3.2km/h 4mph /  6.4km/h 92% 0in /  0.0mm 0 W/m2
06:22 58.5 °F /  14.7 °C 56.1 °F /  13.4 °C 30in /  1015.2hPa East 0.9mph /  1.4km/h 3mph /  4.8km/h 92% 0in /  0.0mm 0 W/m2
06:27 58.3 °F /  14.6 °C 55.9 °F /  13.3 °C 30in /  1015.2hPa West 0.9mph /  1.4km/h 7mph /  11.3km/h 92% 0in /  0.0mm 0 W/m2
06:32 58.3 °F /  14.6 °C 55.9 °F /  13.3 °C 30in /  1015.2hPa North 0.9mph /  1.4km/h 2mph /  3.2km/h 92% 0in /  0.0mm 0 W/m2
06:37 58.1 °F /  14.5 °C 55.8 °F /  13.2 °C 30in /  1015.2hPa NNE 0.9mph /  1.4km/h 7mph /  11.3km/h 92% 0in /  0.0mm 0 W/m2
06:42 57.9 °F /  14.4 °C 55.9 °F /  13.3 °C 30in /  1015.2hPa NE 2mph /  3.2km/h 3mph /  4.8km/h 93% 0in /  0.0mm 0 W/m2
06:47 57.7 °F /  14.3 °C 55.8 °F /  13.2 °C 30in /  1015.2hPa NE 2mph /  3.2km/h 5mph /  8km/h 93% 0in /  0.0mm 0 W/m2
06:52 57.7 °F /  14.3 °C 55.8 °F /  13.2 °C 30in /  1014.9hPa Calm   3mph /  4.8km/h 93% 0in /  0.0mm 0 W/m2
06:57 57.7 °F /  14.3 °C 55.8 °F /  13.2 °C 30in /  1015.2hPa East 2mph /  3.2km/h 2mph /  3.2km/h 93% 0in /  0.0mm 0 W/m2
07:03 57.7 °F /  14.3 °C 55.9 °F /  13.3 °C 30in /  1015.2hPa Calm   2mph /  3.2km/h 94% 0in /  0.0mm 0 W/m2
07:08 57.7 °F /  14.3 °C 55.9 °F /  13.3 °C 30in /  1015.2hPa NNE 0.9mph /  1.4km/h 2mph /  3.2km/h 94% 0in /  0.0mm 0 W/m2
07:13 57.7 °F /  14.3 °C 55.9 °F /  13.3 °C 30in /  1015.2hPa NNW 2mph /  3.2km/h 3mph /  4.8km/h 94% 0in /  0.0mm 0 W/m2
07:18 57.7 °F /  14.3 °C 55.9 °F /  13.3 °C 30in /  1015.2hPa NNW 2mph /  3.2km/h 4mph /  6.4km/h 94% 0in /  0.0mm 0 W/m2
07:23 57.7 °F /  14.3 °C 55.9 °F /  13.3 °C 30in /  1015.2hPa WSW 0.9mph /  1.4km/h 4mph /  6.4km/h 94% 0in /  0.0mm 0 W/m2
07:28 57.7 °F /  14.3 °C 55.9 °F /  13.3 °C 30in /  1015.2hPa Calm   3mph /  4.8km/h 94% 0in /  0.0mm 0 W/m2
07:33 57.7 °F /  14.3 °C 55.9 °F /  13.3 °C 30in /  1015.2hPa NNW 2.9mph /  4.7km/h 4mph /  6.4km/h 94% 0in /  0.0mm 0 W/m2
07:38 57.9 °F /  14.4 °C 56.1 °F /  13.4 °C 30in /  1015.2hPa NNE 2.9mph /  4.7km/h 3mph /  4.8km/h 94% 0in /  0.0mm 0 W/m2
07:43 57.9 °F /  14.4 °C 56.1 °F /  13.4 °C 30in /  1015.2hPa West 4mph /  6.4km/h 4mph /  6.4km/h 94% 0in /  0.0mm 0 W/m2
07:48 58.1 °F /  14.5 °C 56.3 °F /  13.5 °C 30in /  1015.2hPa NNW 2mph /  3.2km/h 4mph /  6.4km/h 94% 0in /  0.0mm 7 W/m2
07:53 58.1 °F /  14.5 °C 56.3 °F /  13.5 °C 30in /  1015.2hPa Calm   2mph /  3.2km/h 94% 0in /  0.0mm 5 W/m2
07:58 58.3 °F /  14.6 °C 56.5 °F /  13.6 °C 30in /  1015.2hPa North 2mph /  3.2km/h 4mph /  6.4km/h 94% 0in /  0.0mm 7 W/m2
08:03 58.3 °F /  14.6 °C 56.5 °F /  13.6 °C 30in /  1015.2hPa NE 2mph /  3.2km/h 6mph /  9.7km/h 94% 0in /  0.0mm 9 W/m2
08:08 58.3 °F /  14.6 °C 56.5 °F /  13.6 °C 30in /  1015.2hPa Calm   2mph /  3.2km/h 94% 0in /  0.0mm 9 W/m2
08:13 58.3 °F /  14.6 °C 56.3 °F /  13.5 °C 30in /  1015.2hPa NNE 0.9mph /  1.4km/h 3mph /  4.8km/h 93% 0in /  0.0mm 9 W/m2
08:18 58.5 °F /  14.7 °C 56.5 °F /  13.6 °C 30in /  1015.2hPa NE 2.9mph /  4.7km/h 4mph /  6.4km/h 93% 0in /  0.0mm 7 W/m2
08:23 58.5 °F /  14.7 °C 56.5 °F /  13.6 °C 30in /  1015.2hPa ENE 2mph /  3.2km/h 2mph /  3.2km/h 93% 0in /  0.0mm 16 W/m2
08:28 58.5 °F /  14.7 °C 56.5 °F /  13.6 °C 30in /  1015.2hPa North 2mph /  3.2km/h 4mph /  6.4km/h 93% 0in /  0.0mm 21 W/m2
08:33 58.5 °F /  14.7 °C 56.5 °F /  13.6 °C 30in /  1015.2hPa ENE 0.9mph /  1.4km/h 4mph /  6.4km/h 93% 0in /  0.0mm 23 W/m2
08:38 58.5 °F /  14.7 °C 56.5 °F /  13.6 °C 30in /  1015.2hPa ENE 2mph /  3.2km/h 3mph /  4.8km/h 93% 0in /  0.0mm 23 W/m2
08:43 58.5 °F /  14.7 °C 56.5 °F /  13.6 °C 30in /  1015.2hPa Calm   4mph /  6.4km/h 93% 0in /  0.0mm 19 W/m2
08:48 58.5 °F /  14.7 °C 56.5 °F /  13.6 °C 30in /  1015.2hPa NNE 0.9mph /  1.4km/h 5mph /  8km/h 93% 0in /  0.0mm 19 W/m2
08:53 58.6 °F /  14.8 °C 56.7 °F /  13.7 °C 30in /  1015.2hPa NE 2.9mph /  4.7km/h 3mph /  4.8km/h 93% 0in /  0.0mm 14 W/m2
08:58 58.6 °F /  14.8 °C 56.7 °F /  13.7 °C 30in /  1015.6hPa NE 0.9mph /  1.4km/h 5mph /  8km/h 93% 0in /  0.0mm 11 W/m2
09:03 58.6 °F /  14.8 °C 56.7 °F /  13.7 °C 30in /  1015.2hPa North 2.9mph /  4.7km/h 5mph /  8km/h 93% 0in /  0.0mm 21 W/m2
09:08 58.8 °F /  14.9 °C 56.8 °F /  13.8 °C 30in /  1015.2hPa ENE 2mph /  3.2km/h 8mph /  12.9km/h 93% 0in /  0.0mm 28 W/m2
09:13 58.8 °F /  14.9 °C 56.8 °F /  13.8 °C 30in /  1015.2hPa NE 0.9mph /  1.4km/h 1mph /  1.6km/h 93% 0in /  0.0mm 28 W/m2
09:18 58.8 °F /  14.9 °C 56.8 °F /  13.8 °C 30in /  1015.2hPa NNE 0.9mph /  1.4km/h 4mph /  6.4km/h 93% 0in /  0.0mm 37 W/m2
09:23 59 °F /  15 °C 57 °F /  13.9 °C 30in /  1015.2hPa NE 2mph /  3.2km/h 3mph /  4.8km/h 93% 0in /  0.0mm 37 W/m2
09:28 59 °F /  15 °C 57 °F /  13.9 °C 30in /  1015.2hPa NNW 4mph /  6.4km/h 4mph /  6.4km/h 93% 0in /  0.0mm 37 W/m2
09:33 59.2 °F /  15.1 °C 57.2 °F /  14 °C 30in /  1015.2hPa NW 4mph /  6.4km/h 5mph /  8km/h 93% 0in /  0.0mm 28 W/m2
09:38 59.2 °F /  15.1 °C 57.2 °F /  14 °C 30in /  1014.9hPa NE 2mph /  3.2km/h 5mph /  8km/h 93% 0in /  0.0mm 30 W/m2
09:44 59.2 °F /  15.1 °C 57.2 °F /  14 °C 30in /  1014.9hPa NNW 0.9mph /  1.4km/h 4mph /  6.4km/h 93% 0in /  0.0mm 30 W/m2
09:49 59.4 °F /  15.2 °C 57.4 °F /  14.1 °C 30in /  1014.9hPa North 2mph /  3.2km/h 5mph /  8km/h 93% 0.01in /  0.2mm 26 W/m2
09:54 59.4 °F /  15.2 °C 57.4 °F /  14.1 °C 30in /  1014.9hPa East 2mph /  3.2km/h 3mph /  4.8km/h 93% 0.01in /  0.2mm 32 W/m2
09:59 59.2 °F /  15.1 °C 57.2 °F /  14 °C 30in /  1014.9hPa NE 2mph /  3.2km/h 5mph /  8km/h 93% 0.01in /  0.2mm 44 W/m2
10:04 59.2 °F /  15.1 °C 57.2 °F /  14 °C 30in /  1014.9hPa West 2mph /  3.2km/h 7mph /  11.3km/h 93% 0.01in /  0.2mm 46 W/m2
10:09 59.2 °F /  15.1 °C 57.4 °F /  14.1 °C 30in /  1014.9hPa NNW 2.9mph /  4.7km/h 5mph /  8km/h 94% 0.02in /  0.5mm 67 W/m2
10:14 59.2 °F /  15.1 °C 57.4 °F /  14.1 °C 30in /  1014.9hPa NW 0.9mph /  1.4km/h 4mph /  6.4km/h 94% 0.02in /  0.5mm 69 W/m2
10:19 59.4 °F /  15.2 °C 57.6 °F /  14.2 °C 30in /  1014.9hPa SE 0.9mph /  1.4km/h 2mph /  3.2km/h 94% 0.02in /  0.5mm 62 W/m2
10:24 59.4 °F /  15.2 °C 57.6 °F /  14.2 °C 30in /  1014.9hPa ENE 6mph /  9.7km/h 6mph /  9.7km/h 94% 0.02in /  0.5mm 56 W/m2
10:29 59.4 °F /  15.2 °C 57.6 °F /  14.2 °C 30in /  1014.9hPa NNW 2.9mph /  4.7km/h 5mph /  8km/h 94% 0.02in /  0.5mm 56 W/m2
10:34 59.4 °F /  15.2 °C 57.6 °F /  14.2 °C 30in /  1014.6hPa North 2mph /  3.2km/h 2mph /  3.2km/h 94% 0.03in /  0.8mm 84 W/m2
10:39 59.4 °F /  15.2 °C 57.6 °F /  14.2 °C 30in /  1014.6hPa NE 2.9mph /  4.7km/h 4mph /  6.4km/h 94% 0.04in /  1.0mm 86 W/m2
10:44 59.4 °F /  15.2 °C 57.6 °F /  14.2 °C 30in /  1014.6hPa NE 0.9mph /  1.4km/h 2mph /  3.2km/h 94% 0.05in /  1.3mm 83 W/m2
10:49 59.4 °F /  15.2 °C 57.6 °F /  14.2 °C 30in /  1014.6hPa North 0.9mph /  1.4km/h 4mph /  6.4km/h 94% 0.04in /  1.0mm 62 W/m2
10:54 59.5 °F /  15.3 °C 58.1 °F /  14.5 °C 30in /  1014.2hPa Calm   1mph /  1.6km/h 95% 0.05in /  1.3mm 69 W/m2
10:59 59.4 °F /  15.2 °C 57.6 °F /  14.2 °C 30in /  1014.6hPa Calm   8mph /  12.9km/h 94% 0.05in /  1.3mm 37 W/m2
11:04 59.5 °F /  15.3 °C 57.7 °F /  14.3 °C 30in /  1014.2hPa NNE 0.9mph /  1.4km/h 4mph /  6.4km/h 94% 0.05in /  1.3mm 39 W/m2
11:09 59.5 °F /  15.3 °C 57.7 °F /  14.3 °C 30in /  1014.6hPa West 2.9mph /  4.7km/h 11mph /  17.7km/h 94% 0.04in /  1.0mm 33 W/m2
11:14 59.5 °F /  15.3 °C 57.7 °F /  14.3 °C 30in /  1014.6hPa WNW 4.9mph /  7.9km/h 9mph /  14.5km/h 94% 0.04in /  1.0mm 44 W/m2
11:19 59.7 °F /  15.4 °C 57.9 °F /  14.4 °C 30in /  1014.6hPa NW 2mph /  3.2km/h 8mph /  12.9km/h 94% 0.04in /  1.0mm 32 W/m2
11:24 59.9 °F /  15.5 °C 58.1 °F /  14.5 °C 30in /  1014.6hPa NNE 2mph /  3.2km/h 7mph /  11.3km/h 94% 0.04in /  1.0mm 33 W/m2
11:29 60.1 °F /  15.6 °C 58.1 °F /  14.5 °C 30in /  1014.2hPa NW 8.9mph /  14.3km/h 10mph /  16.1km/h 93% 0.03in /  0.8mm 42 W/m2
11:34 60.1 °F /  15.6 °C 58.1 °F /  14.5 °C 30in /  1014.2hPa West 2mph /  3.2km/h 6mph /  9.7km/h 93% 0.02in /  0.5mm 58 W/m2
11:39 60.3 °F /  15.7 °C 57.9 °F /  14.4 °C 30in /  1014.2hPa ENE 2.9mph /  4.7km/h 5mph /  8km/h 92% 0.02in /  0.5mm 46 W/m2
11:44 60.4 °F /  15.8 °C 58.1 °F /  14.5 °C 30in /  1014.2hPa ENE 4.9mph /  7.9km/h 5mph /  8km/h 92% 0.02in /  0.5mm 67 W/m2
11:49 60.4 °F /  15.8 °C 58.1 °F /  14.5 °C 30in /  1014.2hPa WNW 2.9mph /  4.7km/h 6mph /  9.7km/h 92% 0.02in /  0.5mm 44 W/m2
11:54 60.4 °F /  15.8 °C 57.7 °F /  14.3 °C 30in /  1014.2hPa SSW 2.9mph /  4.7km/h 20mph /  32.2km/h 91% 0.01in /  0.2mm 60 W/m2
11:59 60.6 °F /  15.9 °C 57.7 °F /  14.3 °C 30in /  1014.2hPa South 0.9mph /  1.4km/h 11mph /  17.7km/h 90% 0.01in /  0.2mm 53 W/m2
12:04 60.6 °F /  15.9 °C 57.7 °F /  14.3 °C 30in /  1014.2hPa NW 6.9mph /  11.1km/h 20mph /  32.2km/h 90% 0.01in /  0.2mm 62 W/m2
12:09 60.6 °F /  15.9 °C 57.7 °F /  14.3 °C 30in /  1014.2hPa ENE 0.9mph /  1.4km/h 5mph /  8km/h 90% 0.01in /  0.2mm 81 W/m2
12:14 60.6 °F /  15.9 °C 57.4 °F /  14.1 °C 30in /  1014.2hPa WNW 2.9mph /  4.7km/h 11mph /  17.7km/h 89% 0.01in /  0.2mm 83 W/m2
12:19 60.4 °F /  15.8 °C 57.2 °F /  14 °C 30in /  1014.2hPa North 2.9mph /  4.7km/h 6mph /  9.7km/h 89% 0.01in /  0.2mm 58 W/m2
12:24 60.4 °F /  15.8 °C 57.6 °F /  14.2 °C 30in /  1014.2hPa WNW 6.9mph /  11.1km/h 9mph /  14.5km/h 90% 0.01in /  0.2mm 91 W/m2
12:29 60.3 °F /  15.7 °C 57 °F /  13.9 °C 30in /  1014.2hPa North 2.9mph /  4.7km/h 13mph /  20.9km/h 89% 0.01in /  0.2mm 70 W/m2
12:34 60.1 °F /  15.6 °C 57.2 °F /  14 °C 30in /  1014.2hPa NW 2.9mph /  4.7km/h 8mph /  12.9km/h 90% 0.01in /  0.2mm 53 W/m2
12:39 60.1 °F /  15.6 °C 57.2 °F /  14 °C 29.9in /  1013.9hPa South 6mph /  9.7km/h 13mph /  20.9km/h 90% 0in /  0.0mm 42 W/m2
12:44 60.1 °F /  15.6 °C 57.2 °F /  14 °C 29.9in /  1013.9hPa West 6.9mph /  11.1km/h 10mph /  16.1km/h 90% 0in /  0.0mm 105 W/m2
12:49 60.3 °F /  15.7 °C 57 °F /  13.9 °C 29.9in /  1013.9hPa WNW 4.9mph /  7.9km/h 12mph /  19.3km/h 89% 0in /  0.0mm 102 W/m2
12:54 60.3 °F /  15.7 °C 57.4 °F /  14.1 °C 29.9in /  1013.9hPa WNW 0.9mph /  1.4km/h 5mph /  8km/h 90% 0in /  0.0mm 98 W/m2
12:59 60.1 °F /  15.6 °C 57.2 °F /  14 °C 29.9in /  1013.9hPa South 4.9mph /  7.9km/h 12mph /  19.3km/h 90% 0.01in /  0.2mm 70 W/m2
13:04 59.9 °F /  15.5 °C 57.2 °F /  14 °C 29.9in /  1013.9hPa Calm   5mph /  8km/h 91% 0.01in /  0.2mm 81 W/m2
13:09 59.9 °F /  15.5 °C 57.2 °F /  14 °C 29.9in /  1013.9hPa NNW 0.9mph /  1.4km/h 9mph /  14.5km/h 91% 0.01in /  0.2mm 86 W/m2
13:14 59.9 °F /  15.5 °C 57.2 °F /  14 °C 29.9in /  1013.5hPa West 2.9mph /  4.7km/h 6mph /  9.7km/h 91% 0.01in /  0.2mm 109 W/m2
13:19 59.9 °F /  15.5 °C 57.2 °F /  14 °C 29.9in /  1013.9hPa NNW 2mph /  3.2km/h 4mph /  6.4km/h 91% 0.01in /  0.2mm 97 W/m2
13:24 59.9 °F /  15.5 °C 57.2 °F /  14 °C 29.9in /  1013.5hPa NNW 2.9mph /  4.7km/h 7mph /  11.3km/h 91% 0.01in /  0.2mm 95 W/m2
13:29 59.9 °F /  15.5 °C 57.6 °F /  14.2 °C 29.9in /  1013.5hPa NNW 2.9mph /  4.7km/h 8mph /  12.9km/h 92% 0.01in /  0.2mm 93 W/m2
13:34 59.9 °F /  15.5 °C 57.6 °F /  14.2 °C 29.9in /  1013.5hPa WNW 4.9mph /  7.9km/h 10mph /  16.1km/h 92% 0.02in /  0.5mm 91 W/m2
13:39 59.9 °F /  15.5 °C 57.6 °F /  14.2 °C 29.9in /  1013.5hPa NNW 6mph /  9.7km/h 8mph /  12.9km/h 92% 0.02in /  0.5mm 95 W/m2
13:44 59.9 °F /  15.5 °C 57.6 °F /  14.2 °C 29.9in /  1013.5hPa WSW 2mph /  3.2km/h 10mph /  16.1km/h 92% 0.02in /  0.5mm 79 W/m2
13:49 59.7 °F /  15.4 °C 57.4 °F /  14.1 °C 29.9in /  1013.5hPa NNW 2.9mph /  4.7km/h 5mph /  8km/h 92% 0.03in /  0.8mm 86 W/m2
13:54 59.7 °F /  15.4 °C 57.7 °F /  14.3 °C 29.9in /  1013.5hPa ENE 4mph /  6.4km/h 7mph /  11.3km/h 93% 0.04in /  1.0mm 116 W/m2
13:59 59.7 °F /  15.4 °C 57.7 °F /  14.3 °C 29.9in /  1013.5hPa NNW 8.1mph /  13km/h 8mph /  12.9km/h 93% 0.03in /  0.8mm 111 W/m2
14:04 59.7 °F /  15.4 °C 57.7 °F /  14.3 °C 29.9in /  1013.2hPa NW 4.9mph /  7.9km/h 6mph /  9.7km/h 93% 0.03in /  0.8mm 107 W/m2
14:09 59.7 °F /  15.4 °C 57.7 °F /  14.3 °C 29.9in /  1013.2hPa SW 2mph /  3.2km/h 12mph /  19.3km/h 93% 0.04in /  1.0mm 105 W/m2
14:14 59.7 °F /  15.4 °C 57.7 °F /  14.3 °C 29.9in /  1013.2hPa NNW 2.9mph /  4.7km/h 8mph /  12.9km/h 93% 0.04in /  1.0mm 77 W/m2
14:19 59.5 °F /  15.3 °C 57.6 °F /  14.2 °C 29.9in /  1013.2hPa NW 2mph /  3.2km/h 7mph /  11.3km/h 93% 0.05in /  1.3mm 49 W/m2
14:24 59.5 °F /  15.3 °C 57.6 °F /  14.2 °C 29.9in /  1013.2hPa North 2.9mph /  4.7km/h 9mph /  14.5km/h 93% 0.05in /  1.3mm 26 W/m2
14:29 59.5 °F /  15.3 °C 57.6 °F /  14.2 °C 29.9in /  1013.2hPa SW 2mph /  3.2km/h 5mph /  8km/h 93% 0.05in /  1.3mm 33 W/m2
14:34 59.5 °F /  15.3 °C 57.6 °F /  14.2 °C 29.9in /  1013.2hPa NNW 2.9mph /  4.7km/h 4mph /  6.4km/h 93% 0.04in /  1.0mm 63 W/m2
14:39 59.5 °F /  15.3 °C 57.6 °F /  14.2 °C 29.9in /  1013.2hPa West 4mph /  6.4km/h 5mph /  8km/h 93% 0.04in /  1.0mm 40 W/m2
14:44 59.5 °F /  15.3 °C 57.6 °F /  14.2 °C 29.9in /  1013.5hPa ENE 2.9mph /  4.7km/h 8mph /  12.9km/h 93% 0.03in /  0.8mm 28 W/m2
14:50 59.5 °F /  15.3 °C 57.6 °F /  14.2 °C 29.9in /  1013.5hPa NNE 0.9mph /  1.4km/h 2mph /  3.2km/h 93% 0.02in /  0.5mm 23 W/m2
14:55 59.5 °F /  15.3 °C 57.6 °F /  14.2 °C 29.9in /  1013.5hPa NW 2mph /  3.2km/h 4mph /  6.4km/h 93% 0.02in /  0.5mm 51 W/m2
15:00 59.5 °F /  15.3 °C 57.6 °F /  14.2 °C 29.9in /  1013.5hPa North 2mph /  3.2km/h 3mph /  4.8km/h 93% 0.02in /  0.5mm 35 W/m2
15:05 59.5 °F /  15.3 °C 57.6 °F /  14.2 °C 29.9in /  1013.5hPa ESE 6mph /  9.7km/h 7mph /  11.3km/h 93% 0.01in /  0.2mm 11 W/m2
15:10 59.5 °F /  15.3 °C 57.7 °F /  14.3 °C 29.9in /  1013.5hPa NW 2mph /  3.2km/h 8mph /  12.9km/h 94% 0.02in /  0.5mm 9 W/m2
15:15 59.4 °F /  15.2 °C 57.6 °F /  14.2 °C 29.9in /  1013.5hPa NW 2.9mph /  4.7km/h 3mph /  4.8km/h 94% 0.02in /  0.5mm 11 W/m2
15:20 59.4 °F /  15.2 °C 57.6 °F /  14.2 °C 29.9in /  1013.5hPa Calm   5mph /  8km/h 94% 0.01in /  0.2mm 12 W/m2
15:25 59.5 °F /  15.3 °C 57.7 °F /  14.3 °C 29.9in /  1013.2hPa NNW 0.9mph /  1.4km/h 4mph /  6.4km/h 94% 0.01in /  0.2mm 18 W/m2
15:30 59.5 °F /  15.3 °C 57.7 °F /  14.3 °C 29.9in /  1013.2hPa ENE 2mph /  3.2km/h 4mph /  6.4km/h 94% 0.01in /  0.2mm 26 W/m2
15:35 59.7 °F /  15.4 °C 57.7 °F /  14.3 °C 29.9in /  1013.2hPa NNW 4mph /  6.4km/h 4mph /  6.4km/h 93% 0.01in /  0.2mm 26 W/m2
15:40 59.7 °F /  15.4 °C 57.7 °F /  14.3 °C 29.9in /  1013.2hPa NE 0.9mph /  1.4km/h 9mph /  14.5km/h 93% 0.01in /  0.2mm 16 W/m2
15:45 59.9 °F /  15.5 °C 57.9 °F /  14.4 °C 29.9in /  1013.5hPa WNW 6.9mph /  11.1km/h 8mph /  12.9km/h 93% 0.01in /  0.2mm 21 W/m2
15:50 60.1 °F /  15.6 °C 58.1 °F /  14.5 °C 29.9in /  1013.5hPa NW 8.1mph /  13km/h 8mph /  12.9km/h 93% 0.01in /  0.2mm 12 W/m2
15:55 60.3 °F /  15.7 °C 57.9 °F /  14.4 °C 29.9in /  1013.5hPa NNE 0.9mph /  1.4km/h 2mph /  3.2km/h 92% 0.01in /  0.2mm 14 W/m2
16:00 60.3 °F /  15.7 °C 57.9 °F /  14.4 °C 29.9in /  1013.2hPa WNW 0.9mph /  1.4km/h 2mph /  3.2km/h 92% 0.01in /  0.2mm 18 W/m2
16:05 60.3 °F /  15.7 °C 57.9 °F /  14.4 °C 29.9in /  1013.2hPa NW 2.9mph /  4.7km/h 4mph /  6.4km/h 92% 0.01in /  0.2mm 23 W/m2
16:10 60.3 °F /  15.7 °C 57.9 °F /  14.4 °C 29.9in /  1013.2hPa NW 2mph /  3.2km/h 2mph /  3.2km/h 92% 0in /  0.0mm 12 W/m2
16:15 60.3 °F /  15.7 °C 57.9 °F /  14.4 °C 29.9in /  1013.2hPa NNW 2mph /  3.2km/h 7mph /  11.3km/h 92% 0in /  0.0mm 7 W/m2
16:20 60.3 °F /  15.7 °C 57.9 °F /  14.4 °C 29.9in /  1013.2hPa Calm   4mph /  6.4km/h 92% 0in /  0.0mm 5 W/m2
16:25 60.3 °F /  15.7 °C 57.9 °F /  14.4 °C 29.9in /  1013.5hPa NNW 2mph /  3.2km/h 7mph /  11.3km/h 92% 0in /  0.0mm 0 W/m2
16:30 60.3 °F /  15.7 °C 57.9 °F /  14.4 °C 29.9in /  1013.5hPa WSW 0.9mph /  1.4km/h 4mph /  6.4km/h 92% 0in /  0.0mm 0 W/m2
16:35 60.3 °F /  15.7 °C 57.9 °F /  14.4 °C 29.9in /  1013.5hPa NNE 0.9mph /  1.4km/h 4mph /  6.4km/h 92% 0in /  0.0mm 0 W/m2
16:40 60.1 °F /  15.6 °C 57.7 °F /  14.3 °C 29.9in /  1013.5hPa North 2mph /  3.2km/h 2mph /  3.2km/h 92% 0in /  0.0mm 0 W/m2
16:45 60.1 °F /  15.6 °C 57.7 °F /  14.3 °C 29.9in /  1013.5hPa SW 4mph /  6.4km/h 4mph /  6.4km/h 92% 0in /  0.0mm 0 W/m2
16:50 60.3 °F /  15.7 °C 57.9 °F /  14.4 °C 29.9in /  1013.2hPa SW 0.9mph /  1.4km/h 5mph /  8km/h 92% 0in /  0.0mm 0 W/m2
16:55 60.3 °F /  15.7 °C 57.9 °F /  14.4 °C 29.9in /  1013.5hPa Calm   6mph /  9.7km/h 92% 0in /  0.0mm 0 W/m2
17:00 60.3 °F /  15.7 °C 57.9 °F /  14.4 °C 29.9in /  1013.2hPa ESE 2mph /  3.2km/h 6mph /  9.7km/h 92% 0in /  0.0mm 0 W/m2
17:05 60.4 °F /  15.8 °C 57.7 °F /  14.3 °C 29.9in /  1013.2hPa NW 4mph /  6.4km/h 4mph /  6.4km/h 91% 0in /  0.0mm 0 W/m2
17:10 60.4 °F /  15.8 °C 57.7 °F /  14.3 °C 29.9in /  1013.2hPa Calm   2mph /  3.2km/h 91% 0in /  0.0mm 0 W/m2
17:15 60.4 °F /  15.8 °C 57.7 °F /  14.3 °C 29.9in /  1013.2hPa NNE 2mph /  3.2km/h 4mph /  6.4km/h 91% 0in /  0.0mm 0 W/m2
17:20 60.4 °F /  15.8 °C 57.7 °F /  14.3 °C 29.9in /  1013.2hPa North 0.9mph /  1.4km/h 2mph /  3.2km/h 91% 0in /  0.0mm 0 W/m2
17:25 60.4 °F /  15.8 °C 57.7 °F /  14.3 °C 29.9in /  1013.2hPa NNW 0.9mph /  1.4km/h 5mph /  8km/h 91% 0in /  0.0mm 0 W/m2
17:30 60.4 °F /  15.8 °C 57.7 °F /  14.3 °C 29.9in /  1013.2hPa NNE 2mph /  3.2km/h 3mph /  4.8km/h 91% 0in /  0.0mm 0 W/m2
17:35 60.4 °F /  15.8 °C 57.6 °F /  14.2 °C 29.9in /  1012.9hPa North 0.9mph /  1.4km/h 6mph /  9.7km/h 90% 0in /  0.0mm 0 W/m2
17:40 60.4 °F /  15.8 °C 57.6 °F /  14.2 °C 29.9in /  1012.9hPa NNW 2.9mph /  4.7km/h 5mph /  8km/h 90% 0in /  0.0mm 0 W/m2
17:45 60.8 °F /  16 °C 57.6 °F /  14.2 °C 29.9in /  1013.2hPa WNW 2.9mph /  4.7km/h 7mph /  11.3km/h 89% 0in /  0.0mm 0 W/m2
17:50 60.8 °F /  16 °C 57.6 °F /  14.2 °C 29.9in /  1013.2hPa NE 2mph /  3.2km/h 4mph /  6.4km/h 89% 0in /  0.0mm 0 W/m2
17:55 61 °F /  16.1 °C 57.7 °F /  14.3 °C 29.9in /  1013.2hPa NE 2mph /  3.2km/h 6mph /  9.7km/h 89% 0in /  0.0mm 0 W/m2
18:00 61.2 °F /  16.2 °C 57.6 °F /  14.2 °C 29.9in /  1013.2hPa NNW 2.9mph /  4.7km/h 8mph /  12.9km/h 88% 0in /  0.0mm 0 W/m2
18:05 61.2 °F /  16.2 °C 57.6 °F /  14.2 °C 29.9in /  1013.2hPa NNE 2mph /  3.2km/h 3mph /  4.8km/h 88% 0in /  0.0mm 0 W/m2
18:10 61.2 °F /  16.2 °C 57.6 °F /  14.2 °C 29.9in /  1013.2hPa SW 6.9mph /  11.1km/h 7mph /  11.3km/h 88% 0in /  0.0mm 0 W/m2
18:15 61.2 °F /  16.2 °C 57.6 °F /  14.2 °C 29.9in /  1013.5hPa NW 6mph /  9.7km/h 8mph /  12.9km/h 88% 0in /  0.0mm 0 W/m2
18:20 61.2 °F /  16.2 °C 57.2 °F /  14 °C 29.9in /  1013.5hPa NW 4mph /  6.4km/h 9mph /  14.5km/h 87% 0in /  0.0mm 0 W/m2
18:25 61.2 °F /  16.2 °C 57.2 °F /  14 °C 29.9in /  1013.2hPa NNW 0.9mph /  1.4km/h 4mph /  6.4km/h 87% 0in /  0.0mm 0 W/m2
18:30 61.3 °F /  16.3 °C 57.4 °F /  14.1 °C 29.9in /  1013.2hPa SE 2.9mph /  4.7km/h 7mph /  11.3km/h 87% 0in /  0.0mm 0 W/m2
18:35 61.3 °F /  16.3 °C 57.4 °F /  14.1 °C 29.9in /  1013.2hPa SW 2mph /  3.2km/h 5mph /  8km/h 87% 0in /  0.0mm 0 W/m2
18:40 61.3 °F /  16.3 °C 57.4 °F /  14.1 °C 29.9in /  1013.2hPa West 0.9mph /  1.4km/h 5mph /  8km/h 87% 0in /  0.0mm 0 W/m2
18:45 61.3 °F /  16.3 °C 57.4 °F /  14.1 °C 29.9in /  1013.2hPa NNW 2mph /  3.2km/h 4mph /  6.4km/h 87% 0in /  0.0mm 0 W/m2
18:50 61.3 °F /  16.3 °C 57.4 °F /  14.1 °C 29.9in /  1013.2hPa North 0.9mph /  1.4km/h 5mph /  8km/h 87% 0in /  0.0mm 0 W/m2
18:55 61.3 °F /  16.3 °C 57.4 °F /  14.1 °C 29.9in /  1013.5hPa West 2.9mph /  4.7km/h 3mph /  4.8km/h 87% 0in /  0.0mm 0 W/m2
19:00 61.5 °F /  16.4 °C 57.6 °F /  14.2 °C 29.9in /  1013.5hPa SW 2mph /  3.2km/h 6mph /  9.7km/h 87% 0in /  0.0mm 0 W/m2
19:05 61.5 °F /  16.4 °C 57.4 °F /  14.1 °C 29.9in /  1013.5hPa East 2mph /  3.2km/h 2mph /  3.2km/h 86% 0in /  0.0mm 0 W/m2
19:10 61.7 °F /  16.5 °C 57.4 °F /  14.1 °C 29.9in /  1013.5hPa West 4mph /  6.4km/h 6mph /  9.7km/h 86% 0in /  0.0mm 0 W/m2
19:15 61.9 °F /  16.6 °C 57.6 °F /  14.2 °C 29.9in /  1013.5hPa NE 2mph /  3.2km/h 7mph /  11.3km/h 86% 0in /  0.0mm 0 W/m2
19:20 61.9 °F /  16.6 °C 57.6 °F /  14.2 °C 29.9in /  1013.5hPa Calm   4mph /  6.4km/h 86% 0in /  0.0mm 0 W/m2
19:25 61.9 °F /  16.6 °C 57.6 °F /  14.2 °C 29.9in /  1013.5hPa North 0.9mph /  1.4km/h 3mph /  4.8km/h 86% 0in /  0.0mm 0 W/m2
19:30 62.1 °F /  16.7 °C 57.7 °F /  14.3 °C 29.9in /  1013.5hPa East 0.9mph /  1.4km/h 4mph /  6.4km/h 86% 0in /  0.0mm 0 W/m2
19:35 62.1 °F /  16.7 °C 58.1 °F /  14.5 °C 29.9in /  1013.2hPa North 0.9mph /  1.4km/h 2mph /  3.2km/h 87% 0in /  0.0mm 0 W/m2
19:40 61.9 °F /  16.6 °C 57.9 °F /  14.4 °C 29.9in /  1013.2hPa North 2mph /  3.2km/h 4mph /  6.4km/h 87% 0in /  0.0mm 0 W/m2
19:45 61.9 °F /  16.6 °C 57.9 °F /  14.4 °C 29.9in /  1013.2hPa North 2mph /  3.2km/h 4mph /  6.4km/h 87% 0in /  0.0mm 0 W/m2
19:50 61.9 °F /  16.6 °C 57.9 °F /  14.4 °C 29.9in /  1012.9hPa West 0.9mph /  1.4km/h 8mph /  12.9km/h 87% 0in /  0.0mm 0 W/m2
19:55 62.1 °F /  16.7 °C 58.1 °F /  14.5 °C 29.9in /  1012.9hPa WNW 2mph /  3.2km/h 7mph /  11.3km/h 87% 0in /  0.0mm 0 W/m2
20:00 62.1 °F /  16.7 °C 58.1 °F /  14.5 °C 29.9in /  1012.9hPa WNW 2.9mph /  4.7km/h 10mph /  16.1km/h 87% 0in /  0.0mm 0 W/m2
20:05 62.1 °F /  16.7 °C 58.1 °F /  14.5 °C 29.9in /  1012.9hPa SW 0.9mph /  1.4km/h 4mph /  6.4km/h 87% 0in /  0.0mm 0 W/m2
20:10 62.2 °F /  16.8 °C 58.3 °F /  14.6 °C 29.9in /  1012.9hPa South 4mph /  6.4km/h 7mph /  11.3km/h 87% 0in /  0.0mm 0 W/m2
20:15 62.1 °F /  16.7 °C 58.5 °F /  14.7 °C 29.9in /  1012.9hPa NW 2.9mph /  4.7km/h 5mph /  8km/h 88% 0in /  0.0mm 0 W/m2
20:20 62.1 °F /  16.7 °C 58.5 °F /  14.7 °C 29.9in /  1012.5hPa WNW 2mph /  3.2km/h 5mph /  8km/h 88% 0in /  0.0mm 0 W/m2
20:25 62.1 °F /  16.7 °C 58.5 °F /  14.7 °C 29.9in /  1012.9hPa West 2mph /  3.2km/h 5mph /  8km/h 88% 0in /  0.0mm 0 W/m2
20:30 62.2 °F /  16.8 °C 58.6 °F /  14.8 °C 29.9in /  1012.9hPa WNW 0.9mph /  1.4km/h 4mph /  6.4km/h 88% 0in /  0.0mm 0 W/m2
20:35 62.2 °F /  16.8 °C 58.6 °F /  14.8 °C 29.9in /  1012.9hPa NW 0.9mph /  1.4km/h 5mph /  8km/h 88% 0in /  0.0mm 0 W/m2
20:40 62.2 °F /  16.8 °C 58.6 °F /  14.8 °C 29.9in /  1012.9hPa Calm   3mph /  4.8km/h 88% 0in /  0.0mm 0 W/m2
20:45 62.2 °F /  16.8 °C 58.6 °F /  14.8 °C 29.9in /  1012.9hPa NW 10.1mph /  16.3km/h 10mph /  16.1km/h 88% 0in /  0.0mm 0 W/m2
20:50 62.2 °F /  16.8 °C 58.6 °F /  14.8 °C 29.9in /  1012.9hPa WSW 4mph /  6.4km/h 6mph /  9.7km/h 88% 0in /  0.0mm 0 W/m2
20:55 62.2 °F /  16.8 °C 58.6 °F /  14.8 °C 29.9in /  1012.9hPa NW 6mph /  9.7km/h 9mph /  14.5km/h 88% 0in /  0.0mm 0 W/m2
21:00 62.2 °F /  16.8 °C 58.6 °F /  14.8 °C 29.9in /  1012.9hPa North 2.9mph /  4.7km/h 4mph /  6.4km/h 88% 0in /  0.0mm 0 W/m2
21:05 62.2 °F /  16.8 °C 58.6 °F /  14.8 °C 29.9in /  1013.2hPa NNW 4.9mph /  7.9km/h 9mph /  14.5km/h 88% 0in /  0.0mm 0 W/m2
21:10 62.2 °F /  16.8 °C 58.6 °F /  14.8 °C 29.9in /  1012.9hPa ENE 0.9mph /  1.4km/h 4mph /  6.4km/h 88% 0in /  0.0mm 0 W/m2
21:15 62.2 °F /  16.8 °C 58.6 °F /  14.8 °C 29.9in /  1012.9hPa NW 2.9mph /  4.7km/h 8mph /  12.9km/h 88% 0in /  0.0mm 0 W/m2
21:20 62.2 °F /  16.8 °C 58.6 °F /  14.8 °C 29.9in /  1012.9hPa NE 2mph /  3.2km/h 4mph /  6.4km/h 88% 0in /  0.0mm 0 W/m2
21:25 62.2 °F /  16.8 °C 58.6 °F /  14.8 °C 29.9in /  1012.9hPa NW 2.9mph /  4.7km/h 5mph /  8km/h 88% 0in /  0.0mm 0 W/m2
21:30 62.2 °F /  16.8 °C 58.6 °F /  14.8 °C 29.9in /  1012.9hPa Calm   4mph /  6.4km/h 88% 0in /  0.0mm 0 W/m2
21:35 62.2 °F /  16.8 °C 58.6 °F /  14.8 °C 29.9in /  1012.9hPa NW 4mph /  6.4km/h 8mph /  12.9km/h 88% 0in /  0.0mm 0 W/m2
21:40 62.4 °F /  16.9 °C 58.8 °F /  14.9 °C 29.9in /  1012.9hPa SW 6.9mph /  11.1km/h 7mph /  11.3km/h 88% 0in /  0.0mm 0 W/m2
21:45 62.4 °F /  16.9 °C 58.8 °F /  14.9 °C 29.9in /  1012.9hPa North 4mph /  6.4km/h 5mph /  8km/h 88% 0in /  0.0mm 0 W/m2
21:50 62.4 °F /  16.9 °C 58.8 °F /  14.9 °C 29.9in /  1012.9hPa WSW 6.9mph /  11.1km/h 8mph /  12.9km/h 88% 0in /  0.0mm 0 W/m2
21:55 62.6 °F /  17 °C 59 °F /  15 °C 29.9in /  1012.9hPa NW 0.9mph /  1.4km/h 8mph /  12.9km/h 88% 0in /  0.0mm 0 W/m2
22:00 62.8 °F /  17.1 °C 59.2 °F /  15.1 °C 29.9in /  1013.2hPa East 2.9mph /  4.7km/h 7mph /  11.3km/h 88% 0in /  0.0mm 0 W/m2
22:05 62.8 °F /  17.1 °C 59.2 °F /  15.1 °C 29.9in /  1012.9hPa North 2mph /  3.2km/h 9mph /  14.5km/h 88% 0in /  0.0mm 0 W/m2
22:10 63 °F /  17.2 °C 59.4 °F /  15.2 °C 29.9in /  1012.9hPa WNW 2mph /  3.2km/h 11mph /  17.7km/h 88% 0in /  0.0mm 0 W/m2
22:15 63 °F /  17.2 °C 59.4 °F /  15.2 °C 29.9in /  1013.2hPa NW 4mph /  6.4km/h 7mph /  11.3km/h 88% 0in /  0.0mm 0 W/m2
22:20 63 °F /  17.2 °C 59.4 °F /  15.2 °C 29.9in /  1013.2hPa NW 0.9mph /  1.4km/h 6mph /  9.7km/h 88% 0in /  0.0mm 0 W/m2
22:25 63.1 °F /  17.3 °C 59.5 °F /  15.3 °C 29.9in /  1013.2hPa WNW 10.1mph /  16.3km/h 10mph /  16.1km/h 88% 0in /  0.0mm 0 W/m2
22:30 63.1 °F /  17.3 °C 59.5 °F /  15.3 °C 29.9in /  1013.2hPa North 0.9mph /  1.4km/h 11mph /  17.7km/h 88% 0in /  0.0mm 0 W/m2
22:35 63.1 °F /  17.3 °C 59.5 °F /  15.3 °C 29.9in /  1013.5hPa WSW 4mph /  6.4km/h 4mph /  6.4km/h 88% 0in /  0.0mm 0 W/m2
22:40 63.1 °F /  17.3 °C 59.5 °F /  15.3 °C 29.9in /  1013.5hPa Calm   10mph /  16.1km/h 88% 0in /  0.0mm 0 W/m2
22:45 63.1 °F /  17.3 °C 59.5 °F /  15.3 °C 29.9in /  1013.5hPa NNW 2.9mph /  4.7km/h 3mph /  4.8km/h 88% 0in /  0.0mm 0 W/m2
22:50 63.1 °F /  17.3 °C 59.5 °F /  15.3 °C 29.9in /  1013.5hPa ENE 2mph /  3.2km/h 6mph /  9.7km/h 88% 0in /  0.0mm 0 W/m2
22:55 63.1 °F /  17.3 °C 59.5 °F /  15.3 °C 29.9in /  1013.2hPa West 0.9mph /  1.4km/h 5mph /  8km/h 88% 0in /  0.0mm 0 W/m2
23:00 63.1 °F /  17.3 °C 59.5 °F /  15.3 °C 29.9in /  1013.2hPa North 0.9mph /  1.4km/h 4mph /  6.4km/h 88% 0in /  0.0mm 0 W/m2
23:05 63.1 °F /  17.3 °C 59.5 °F /  15.3 °C 29.9in /  1013.2hPa West 2mph /  3.2km/h 12mph /  19.3km/h 88% 0in /  0.0mm 0 W/m2
23:10 63.3 °F /  17.4 °C 59.7 °F /  15.4 °C 29.9in /  1013.5hPa WNW 2.9mph /  4.7km/h 3mph /  4.8km/h 88% 0in /  0.0mm 0 W/m2
23:15 63.3 °F /  17.4 °C 59.7 °F /  15.4 °C 29.9in /  1013.2hPa North 0.9mph /  1.4km/h 12mph /  19.3km/h 88% 0in /  0.0mm 0 W/m2
23:20 63.3 °F /  17.4 °C 59.4 °F /  15.2 °C 29.9in /  1013.2hPa WNW 0.9mph /  1.4km/h 5mph /  8km/h 87% 0in /  0.0mm 0 W/m2
23:25 63.5 °F /  17.5 °C 59.5 °F /  15.3 °C 29.9in /  1013.2hPa NE 2mph /  3.2km/h 7mph /  11.3km/h 87% 0in /  0.0mm 0 W/m2
23:30 63.7 °F /  17.6 °C 59.7 °F /  15.4 °C 29.9in /  1013.2hPa WNW 2.9mph /  4.7km/h 8mph /  12.9km/h 87% 0in /  0.0mm 0 W/m2
23:35 63.7 °F /  17.6 °C 59.7 °F /  15.4 °C 29.9in /  1012.9hPa West 0.9mph /  1.4km/h 6mph /  9.7km/h 87% 0in /  0.0mm 0 W/m2
23:40 63.7 °F /  17.6 °C 59.7 °F /  15.4 °C 29.9in /  1013.2hPa NNE 4.9mph /  7.9km/h 5mph /  8km/h 87% 0in /  0.0mm 0 W/m2
23:45 63.7 °F /  17.6 °C 59.7 °F /  15.4 °C 29.9in /  1013.2hPa West 2mph /  3.2km/h 3mph /  4.8km/h 87% 0in /  0.0mm 0 W/m2
23:50 63.7 °F /  17.6 °C 59.7 °F /  15.4 °C 29.9in /  1012.9hPa ENE 2mph /  3.2km/h 7mph /  11.3km/h 87% 0in /  0.0mm 0 W/m2
23:55 63.5 °F /  17.5 °C 59.5 °F /  15.3 °C 29.9in /  1012.9hPa NNW 6mph /  9.7km/h 7mph /  11.3km/h 87% 0in /  0.0mm 0 W/m2
Juneau County Weather
Compliments of Weather Underground - 2 mb